Terminal Aerodrome Forecast
Issued by NWS

Home | Current Version | Previous Version | Text Only | Print | Product List | Glossary On
Versions: 1 2 3 4 5 6 7 8 9 10 11 12 13 14 15 16 17 18 19 20 21 22 23 24 25 26 27 28 29 30 31 32 33 34 35 36 37 38 39 40 41 42 43 44 45 46 47
000
FTUS42 KJAX 250500
TAFVQQ
TAF
KVQQ 250529Z 2506/2606 25010G20KT P6SM VCSH SCT020 OVC080
      TEMPO 2506/2510 BKN015
     FM251200 31010KT P6SM SCT030 OVC100
     FM251900 33007KT P6SM BKN120
     FM260200 35002KT P6SM SCT250=

USA.gov is the U.S. government's official web portal to all federal, state and local government web resources and services.